sensor_id;sensor_type;location;lat;lon;timestamp;P1;durP1;ratioP1;P2;durP2;ratioP2
4857;SDS011;58975;51.978;8.472;2023-06-14T00:01:13;1.52;;;1.42;;
4857;SDS011;58975;51.978;8.472;2023-06-14T00:06:10;5.55;;;1.52;;
4857;SDS011;58975;51.978;8.472;2023-06-14T00:11:06;4.22;;;1.70;;
4857;SDS011;58975;51.978;8.472;2023-06-14T00:16:03;2.92;;;1.60;;
4857;SDS011;58975;51.978;8.472;2023-06-14T00:21:00;3.53;;;1.75;;
4857;SDS011;58975;51.978;8.472;2023-06-14T00:25:58;3.20;;;1.80;;
4857;SDS011;58975;51.978;8.472;2023-06-14T00:30:55;3.67;;;1.80;;
4857;SDS011;58975;51.978;8.472;2023-06-14T00:35:51;4.05;;;1.90;;
4857;SDS011;58975;51.978;8.472;2023-06-14T00:40:50;2.83;;;1.85;;
4857;SDS011;58975;51.978;8.472;2023-06-14T00:45:47;2.37;;;1.67;;
4857;SDS011;58975;51.978;8.472;2023-06-14T00:50:45;3.58;;;1.77;;
4857;SDS011;58975;51.978;8.472;2023-06-14T00:55:44;9.88;;;2.22;;
4857;SDS011;58975;51.978;8.472;2023-06-14T01:00:41;3.90;;;1.45;;
4857;SDS011;58975;51.978;8.472;2023-06-14T01:05:38;2.57;;;1.70;;
4857;SDS011;58975;51.978;8.472;2023-06-14T01:15:57;4.22;;;1.85;;
4857;SDS011;58975;51.978;8.472;2023-06-14T01:20:55;7.03;;;1.90;;
4857;SDS011;58975;51.978;8.472;2023-06-14T01:25:52;1.90;;;1.50;;
4857;SDS011;58975;51.978;8.472;2023-06-14T01:30:50;7.32;;;2.10;;
4857;SDS011;58975;51.978;8.472;2023-06-14T01:35:50;2.30;;;1.55;;
4857;SDS011;58975;51.978;8.472;2023-06-14T01:40:48;2.55;;;1.83;;
4857;SDS011;58975;51.978;8.472;2023-06-14T01:45:47;1.98;;;1.70;;
4857;SDS011;58975;51.978;8.472;2023-06-14T01:50:48;4.00;;;2.38;;
4857;SDS011;58975;51.978;8.472;2023-06-14T01:55:46;3.10;;;1.83;;
4857;SDS011;58975;51.978;8.472;2023-06-14T02:00:45;3.05;;;1.92;;
4857;SDS011;58975;51.978;8.472;2023-06-14T02:05:41;4.13;;;1.98;;
4857;SDS011;58975;51.978;8.472;2023-06-14T02:10:38;4.72;;;1.88;;
4857;SDS011;58975;51.978;8.472;2023-06-14T02:15:34;5.10;;;1.95;;
4857;SDS011;58975;51.978;8.472;2023-06-14T02:20:32;4.50;;;1.97;;
4857;SDS011;58975;51.978;8.472;2023-06-14T02:25:28;8.60;;;2.47;;
4857;SDS011;58975;51.978;8.472;2023-06-14T02:30:25;3.22;;;1.77;;
4857;SDS011;58975;51.978;8.472;2023-06-14T02:35:21;2.22;;;1.92;;
4857;SDS011;58975;51.978;8.472;2023-06-14T02:40:20;4.18;;;2.05;;
4857;SDS011;58975;51.978;8.472;2023-06-14T02:45:17;5.57;;;1.88;;
4857;SDS011;58975;51.978;8.472;2023-06-14T02:50:14;3.88;;;2.10;;
4857;SDS011;58975;51.978;8.472;2023-06-14T02:55:11;3.53;;;2.03;;
4857;SDS011;58975;51.978;8.472;2023-06-14T03:00:07;4.90;;;2.38;;
4857;SDS011;58975;51.978;8.472;2023-06-14T03:05:10;4.40;;;2.00;;
4857;SDS011;58975;51.978;8.472;2023-06-14T03:10:07;3.60;;;2.00;;
4857;SDS011;58975;51.978;8.472;2023-06-14T03:15:05;3.75;;;2.15;;
4857;SDS011;58975;51.978;8.472;2023-06-14T03:20:02;8.60;;;2.40;;
4857;SDS011;58975;51.978;8.472;2023-06-14T03:24:59;4.40;;;2.10;;
4857;SDS011;58975;51.978;8.472;2023-06-14T03:29:56;4.35;;;2.00;;
4857;SDS011;58975;51.978;8.472;2023-06-14T03:34:53;3.47;;;1.88;;
4857;SDS011;58975;51.978;8.472;2023-06-14T03:39:50;3.65;;;2.00;;
4857;SDS011;58975;51.978;8.472;2023-06-14T03:44:46;4.65;;;1.73;;
4857;SDS011;58975;51.978;8.472;2023-06-14T03:49:42;3.78;;;1.70;;
4857;SDS011;58975;51.978;8.472;2023-06-14T03:54:39;5.45;;;1.90;;
4857;SDS011;58975;51.978;8.472;2023-06-14T03:59:56;6.85;;;1.83;;
4857;SDS011;58975;51.978;8.472;2023-06-14T04:04:53;2.55;;;2.05;;
4857;SDS011;58975;51.978;8.472;2023-06-14T04:09:50;2.33;;;1.27;;
4857;SDS011;58975;51.978;8.472;2023-06-14T04:14:47;3.70;;;1.98;;
4857;SDS011;58975;51.978;8.472;2023-06-14T04:19:43;3.58;;;1.75;;
4857;SDS011;58975;51.978;8.472;2023-06-14T04:24:40;7.55;;;1.92;;
4857;SDS011;58975;51.978;8.472;2023-06-14T04:29:38;3.60;;;1.90;;
4857;SDS011;58975;51.978;8.472;2023-06-14T04:34:35;5.88;;;2.40;;
4857;SDS011;58975;51.978;8.472;2023-06-14T04:39:33;4.13;;;1.88;;
4857;SDS011;58975;51.978;8.472;2023-06-14T04:44:30;5.07;;;1.98;;
4857;SDS011;58975;51.978;8.472;2023-06-14T04:54:27;5.95;;;2.17;;
4857;SDS011;58975;51.978;8.472;2023-06-14T04:59:23;2.10;;;1.63;;
4857;SDS011;58975;51.978;8.472;2023-06-14T05:04:20;7.45;;;1.80;;
4857;SDS011;58975;51.978;8.472;2023-06-14T05:09:18;2.55;;;1.63;;
4857;SDS011;58975;51.978;8.472;2023-06-14T05:14:15;2.25;;;1.40;;
4857;SDS011;58975;51.978;8.472;2023-06-14T05:19:11;2.78;;;1.50;;
4857;SDS011;58975;51.978;8.472;2023-06-14T05:24:08;2.10;;;1.45;;
4857;SDS011;58975;51.978;8.472;2023-06-14T05:29:05;4.82;;;1.50;;
4857;SDS011;58975;51.978;8.472;2023-06-14T05:34:02;1.50;;;1.08;;
4857;SDS011;58975;51.978;8.472;2023-06-14T05:38:58;4.40;;;1.70;;
4857;SDS011;58975;51.978;8.472;2023-06-14T05:43:56;2.92;;;1.50;;
4857;SDS011;58975;51.978;8.472;2023-06-14T05:48:53;6.07;;;1.65;;
4857;SDS011;58975;51.978;8.472;2023-06-14T05:53:50;3.27;;;1.57;;
4857;SDS011;58975;51.978;8.472;2023-06-14T05:58:47;5.45;;;1.67;;
4857;SDS011;58975;51.978;8.472;2023-06-14T06:03:44;2.00;;;1.40;;
4857;SDS011;58975;51.978;8.472;2023-06-14T06:08:44;3.10;;;1.30;;
4857;SDS011;58975;51.978;8.472;2023-06-14T06:13:41;3.30;;;1.52;;
4857;SDS011;58975;51.978;8.472;2023-06-14T06:18:37;1.92;;;1.60;;
4857;SDS011;58975;51.978;8.472;2023-06-14T06:23:34;4.33;;;1.20;;
4857;SDS011;58975;51.978;8.472;2023-06-14T06:28:31;3.67;;;1.07;;
4857;SDS011;58975;51.978;8.472;2023-06-14T06:33:28;3.90;;;0.88;;
4857;SDS011;58975;51.978;8.472;2023-06-14T06:38:24;5.43;;;1.00;;
4857;SDS011;58975;51.978;8.472;2023-06-14T06:43:21;2.58;;;1.23;;
4857;SDS011;58975;51.978;8.472;2023-06-14T06:48:17;1.20;;;0.90;;
4857;SDS011;58975;51.978;8.472;2023-06-14T06:53:14;1.02;;;0.90;;
4857;SDS011;58975;51.978;8.472;2023-06-14T06:58:15;0.95;;;0.68;;
4857;SDS011;58975;51.978;8.472;2023-06-14T07:03:12;4.38;;;0.88;;
4857;SDS011;58975;51.978;8.472;2023-06-14T07:08:09;1.80;;;0.90;;
4857;SDS011;58975;51.978;8.472;2023-06-14T07:13:05;1.67;;;1.10;;
4857;SDS011;58975;51.978;8.472;2023-06-14T07:18:05;2.10;;;1.17;;
4857;SDS011;58975;51.978;8.472;2023-06-14T07:28:00;1.30;;;1.20;;
4857;SDS011;58975;51.978;8.472;2023-06-14T07:32:56;2.30;;;1.15;;
4857;SDS011;58975;51.978;8.472;2023-06-14T07:37:53;2.63;;;1.02;;
4857;SDS011;58975;51.978;8.472;2023-06-14T07:42:50;4.20;;;1.30;;
4857;SDS011;58975;51.978;8.472;2023-06-14T07:47:46;1.77;;;1.05;;
4857;SDS011;58975;51.978;8.472;2023-06-14T07:52:43;2.15;;;0.90;;
4857;SDS011;58975;51.978;8.472;2023-06-14T08:02:38;1.13;;;0.88;;
4857;SDS011;58975;51.978;8.472;2023-06-14T08:07:35;0.90;;;0.70;;
4857;SDS011;58975;51.978;8.472;2023-06-14T08:12:32;1.20;;;0.80;;
4857;SDS011;58975;51.978;8.472;2023-06-14T08:17:29;1.37;;;1.10;;
4857;SDS011;58975;51.978;8.472;2023-06-14T08:22:25;1.40;;;1.05;;
4857;SDS011;58975;51.978;8.472;2023-06-14T08:27:24;1.10;;;0.63;;
4857;SDS011;58975;51.978;8.472;2023-06-14T08:32:20;2.83;;;1.00;;
4857;SDS011;58975;51.978;8.472;2023-06-14T08:37:17;3.70;;;1.15;;
4857;SDS011;58975;51.978;8.472;2023-06-14T08:42:14;3.65;;;1.00;;
4857;SDS011;58975;51.978;8.472;2023-06-14T08:47:27;0.95;;;0.90;;
4857;SDS011;58975;51.978;8.472;2023-06-14T08:52:25;2.42;;;1.40;;
4857;SDS011;58975;51.978;8.472;2023-06-14T08:57:26;2.28;;;1.00;;
4857;SDS011;58975;51.978;8.472;2023-06-14T09:02:26;1.45;;;0.90;;
4857;SDS011;58975;51.978;8.472;2023-06-14T09:07:23;3.72;;;1.08;;
4857;SDS011;58975;51.978;8.472;2023-06-14T09:12:20;6.40;;;1.40;;
4857;SDS011;58975;51.978;8.472;2023-06-14T09:17:16;2.58;;;1.05;;
4857;SDS011;58975;51.978;8.472;2023-06-14T09:22:13;1.40;;;1.05;;
4857;SDS011;58975;51.978;8.472;2023-06-14T09:27:14;6.07;;;1.20;;
4857;SDS011;58975;51.978;8.472;2023-06-14T09:32:11;3.70;;;0.90;;
4857;SDS011;58975;51.978;8.472;2023-06-14T09:37:08;2.60;;;1.13;;
4857;SDS011;58975;51.978;8.472;2023-06-14T09:42:09;4.65;;;0.98;;
4857;SDS011;58975;51.978;8.472;2023-06-14T09:47:17;1.25;;;1.15;;
4857;SDS011;58975;51.978;8.472;2023-06-14T09:52:16;1.98;;;1.30;;
4857;SDS011;58975;51.978;8.472;2023-06-14T09:57:14;1.98;;;1.10;;
4857;SDS011;58975;51.978;8.472;2023-06-14T10:02:31;4.57;;;1.25;;
4857;SDS011;58975;51.978;8.472;2023-06-14T10:07:34;1.80;;;1.23;;
4857;SDS011;58975;51.978;8.472;2023-06-14T10:12:42;1.38;;;1.27;;
4857;SDS011;58975;51.978;8.472;2023-06-14T10:17:43;2.33;;;1.30;;
4857;SDS011;58975;51.978;8.472;2023-06-14T10:22:47;3.53;;;1.33;;
4857;SDS011;58975;51.978;8.472;2023-06-14T10:27:47;3.72;;;1.20;;
4857;SDS011;58975;51.978;8.472;2023-06-14T10:38:06;1.20;;;1.10;;
4857;SDS011;58975;51.978;8.472;2023-06-14T10:43:21;1.77;;;1.10;;
4857;SDS011;58975;51.978;8.472;2023-06-14T10:48:29;2.28;;;1.20;;
4857;SDS011;58975;51.978;8.472;2023-06-14T10:53:26;2.07;;;0.90;;
4857;SDS011;58975;51.978;8.472;2023-06-14T10:58:22;3.13;;;1.17;;
4857;SDS011;58975;51.978;8.472;2023-06-14T11:14:40;1.77;;;1.00;;
4857;SDS011;58975;51.978;8.472;2023-06-14T11:19:37;1.42;;;0.90;;
4857;SDS011;58975;51.978;8.472;2023-06-14T11:24:33;1.43;;;1.03;;
4857;SDS011;58975;51.978;8.472;2023-06-14T11:29:30;1.42;;;1.33;;
4857;SDS011;58975;51.978;8.472;2023-06-14T11:39:24;4.97;;;1.15;;
4857;SDS011;58975;51.978;8.472;2023-06-14T11:44:21;2.85;;;1.00;;
4857;SDS011;58975;51.978;8.472;2023-06-14T11:49:18;1.85;;;1.00;;
4857;SDS011;58975;51.978;8.472;2023-06-14T11:54:15;5.93;;;1.10;;
4857;SDS011;58975;51.978;8.472;2023-06-14T11:59:12;1.15;;;1.00;;
4857;SDS011;58975;51.978;8.472;2023-06-14T12:04:09;0.90;;;0.90;;
4857;SDS011;58975;51.978;8.472;2023-06-14T12:09:06;1.13;;;1.03;;
4857;SDS011;58975;51.978;8.472;2023-06-14T12:14:10;3.03;;;1.20;;
4857;SDS011;58975;51.978;8.472;2023-06-14T12:19:11;5.03;;;1.08;;
4857;SDS011;58975;51.978;8.472;2023-06-14T12:24:09;2.25;;;0.63;;
4857;SDS011;58975;51.978;8.472;2023-06-14T12:29:09;1.88;;;1.55;;
4857;SDS011;58975;51.978;8.472;2023-06-14T12:34:07;3.85;;;1.00;;
4857;SDS011;58975;51.978;8.472;2023-06-14T12:39:03;1.80;;;0.95;;
4857;SDS011;58975;51.978;8.472;2023-06-14T12:44:00;3.22;;;1.33;;
4857;SDS011;58975;51.978;8.472;2023-06-14T12:49:00;2.10;;;1.08;;
4857;SDS011;58975;51.978;8.472;2023-06-14T12:53:57;3.05;;;0.90;;
4857;SDS011;58975;51.978;8.472;2023-06-14T12:58:53;1.73;;;0.93;;
4857;SDS011;58975;51.978;8.472;2023-06-14T13:03:50;3.67;;;1.35;;
4857;SDS011;58975;51.978;8.472;2023-06-14T13:08:50;2.53;;;1.00;;
4857;SDS011;58975;51.978;8.472;2023-06-14T13:13:46;1.57;;;1.00;;
4857;SDS011;58975;51.978;8.472;2023-06-14T13:18:43;0.97;;;0.97;;
4857;SDS011;58975;51.978;8.472;2023-06-14T13:23:39;1.57;;;0.80;;
4857;SDS011;58975;51.978;8.472;2023-06-14T13:28:35;0.80;;;0.80;;
4857;SDS011;58975;51.978;8.472;2023-06-14T13:33:32;1.42;;;0.88;;
4857;SDS011;58975;51.978;8.472;2023-06-14T13:38:29;0.70;;;0.70;;
4857;SDS011;58975;51.978;8.472;2023-06-14T13:43:25;1.35;;;1.00;;
4857;SDS011;58975;51.978;8.472;2023-06-14T13:48:22;1.20;;;0.87;;
4857;SDS011;58975;51.978;8.472;2023-06-14T13:53:18;1.53;;;0.90;;
4857;SDS011;58975;51.978;8.472;2023-06-14T13:58:15;1.10;;;0.80;;
4857;SDS011;58975;51.978;8.472;2023-06-14T14:03:11;2.00;;;0.88;;
4857;SDS011;58975;51.978;8.472;2023-06-14T14:08:08;3.95;;;0.90;;
4857;SDS011;58975;51.978;8.472;2023-06-14T14:13:04;1.97;;;1.07;;
4857;SDS011;58975;51.978;8.472;2023-06-14T14:18:01;1.30;;;1.20;;
4857;SDS011;58975;51.978;8.472;2023-06-14T14:22:59;1.95;;;1.02;;
4857;SDS011;58975;51.978;8.472;2023-06-14T14:27:56;1.30;;;1.07;;
4857;SDS011;58975;51.978;8.472;2023-06-14T14:32:53;1.00;;;0.80;;
4857;SDS011;58975;51.978;8.472;2023-06-14T14:37:50;1.77;;;1.20;;
4857;SDS011;58975;51.978;8.472;2023-06-14T14:42:46;3.63;;;1.00;;
4857;SDS011;58975;51.978;8.472;2023-06-14T14:47:43;4.10;;;1.00;;
4857;SDS011;58975;51.978;8.472;2023-06-14T14:52:39;4.47;;;1.40;;
4857;SDS011;58975;51.978;8.472;2023-06-14T14:57:36;3.00;;;1.33;;
4857;SDS011;58975;51.978;8.472;2023-06-14T15:02:32;1.70;;;1.53;;
4857;SDS011;58975;51.978;8.472;2023-06-14T15:07:32;1.47;;;1.33;;
4857;SDS011;58975;51.978;8.472;2023-06-14T15:12:29;1.67;;;1.30;;
4857;SDS011;58975;51.978;8.472;2023-06-14T15:17:26;1.90;;;1.33;;
4857;SDS011;58975;51.978;8.472;2023-06-14T15:22:23;1.20;;;1.10;;
4857;SDS011;58975;51.978;8.472;2023-06-14T15:27:19;2.03;;;1.40;;
4857;SDS011;58975;51.978;8.472;2023-06-14T15:32:16;3.70;;;1.40;;
4857;SDS011;58975;51.978;8.472;2023-06-14T15:37:12;1.73;;;1.40;;
4857;SDS011;58975;51.978;8.472;2023-06-14T15:42:09;2.30;;;1.50;;
4857;SDS011;58975;51.978;8.472;2023-06-14T15:47:06;5.57;;;1.40;;
4857;SDS011;58975;51.978;8.472;2023-06-14T15:52:03;28.88;;;2.85;;
4857;SDS011;58975;51.978;8.472;2023-06-14T15:57:00;3.47;;;1.55;;
4857;SDS011;58975;51.978;8.472;2023-06-14T16:01:57;3.08;;;1.50;;
4857;SDS011;58975;51.978;8.472;2023-06-14T16:06:53;4.25;;;1.67;;
4857;SDS011;58975;51.978;8.472;2023-06-14T16:11:50;3.33;;;1.63;;
4857;SDS011;58975;51.978;8.472;2023-06-14T16:16:46;1.92;;;1.77;;
4857;SDS011;58975;51.978;8.472;2023-06-14T16:21:44;3.83;;;1.65;;
4857;SDS011;58975;51.978;8.472;2023-06-14T16:26:40;14.10;;;2.05;;
4857;SDS011;58975;51.978;8.472;2023-06-14T16:31:37;2.83;;;1.60;;
4857;SDS011;58975;51.978;8.472;2023-06-14T16:36:33;4.20;;;2.03;;
4857;SDS011;58975;51.978;8.472;2023-06-14T16:41:30;4.28;;;2.10;;
4857;SDS011;58975;51.978;8.472;2023-06-14T16:46:27;3.50;;;1.70;;
4857;SDS011;58975;51.978;8.472;2023-06-14T16:51:26;2.15;;;1.80;;
4857;SDS011;58975;51.978;8.472;2023-06-14T16:56:23;6.88;;;1.90;;
4857;SDS011;58975;51.978;8.472;2023-06-14T17:01:25;3.17;;;1.85;;
4857;SDS011;58975;51.978;8.472;2023-06-14T17:06:22;4.80;;;1.65;;
4857;SDS011;58975;51.978;8.472;2023-06-14T17:11:20;2.50;;;2.28;;
4857;SDS011;58975;51.978;8.472;2023-06-14T17:16:20;4.57;;;1.70;;
4857;SDS011;58975;51.978;8.472;2023-06-14T17:26:13;3.13;;;1.63;;
4857;SDS011;58975;51.978;8.472;2023-06-14T17:36:07;9.00;;;1.77;;
4857;SDS011;58975;51.978;8.472;2023-06-14T17:41:03;3.38;;;1.80;;
4857;SDS011;58975;51.978;8.472;2023-06-14T17:46:05;6.78;;;1.83;;
4857;SDS011;58975;51.978;8.472;2023-06-14T17:51:02;5.03;;;2.08;;
4857;SDS011;58975;51.978;8.472;2023-06-14T17:56:01;2.85;;;1.92;;
4857;SDS011;58975;51.978;8.472;2023-06-14T18:00:59;2.83;;;1.83;;
4857;SDS011;58975;51.978;8.472;2023-06-14T18:10:54;5.18;;;2.20;;
4857;SDS011;58975;51.978;8.472;2023-06-14T18:15:51;3.70;;;1.77;;
4857;SDS011;58975;51.978;8.472;2023-06-14T18:20:47;7.25;;;2.15;;
4857;SDS011;58975;51.978;8.472;2023-06-14T18:25:44;4.55;;;2.28;;
4857;SDS011;58975;51.978;8.472;2023-06-14T18:35:37;3.33;;;2.05;;
4857;SDS011;58975;51.978;8.472;2023-06-14T18:40:34;5.05;;;1.90;;
4857;SDS011;58975;51.978;8.472;2023-06-14T18:45:32;2.50;;;1.70;;
4857;SDS011;58975;51.978;8.472;2023-06-14T18:50:28;5.18;;;2.47;;
4857;SDS011;58975;51.978;8.472;2023-06-14T18:55:25;5.57;;;2.65;;
4857;SDS011;58975;51.978;8.472;2023-06-14T19:00:21;5.45;;;2.20;;
4857;SDS011;58975;51.978;8.472;2023-06-14T19:05:18;3.63;;;2.03;;
4857;SDS011;58975;51.978;8.472;2023-06-14T19:10:19;5.55;;;2.03;;
4857;SDS011;58975;51.978;8.472;2023-06-14T19:15:16;4.30;;;2.10;;
4857;SDS011;58975;51.978;8.472;2023-06-14T19:20:13;3.63;;;2.20;;
4857;SDS011;58975;51.978;8.472;2023-06-14T19:25:09;5.45;;;2.03;;
4857;SDS011;58975;51.978;8.472;2023-06-14T19:30:06;6.80;;;2.55;;
4857;SDS011;58975;51.978;8.472;2023-06-14T19:35:03;5.32;;;2.22;;
4857;SDS011;58975;51.978;8.472;2023-06-14T19:40:03;3.13;;;2.08;;
4857;SDS011;58975;51.978;8.472;2023-06-14T19:45:00;3.88;;;1.77;;
4857;SDS011;58975;51.978;8.472;2023-06-14T19:49:56;2.72;;;2.10;;
4857;SDS011;58975;51.978;8.472;2023-06-14T19:54:54;5.97;;;2.30;;
4857;SDS011;58975;51.978;8.472;2023-06-14T19:59:50;5.75;;;2.20;;
4857;SDS011;58975;51.978;8.472;2023-06-14T20:04:47;3.38;;;2.03;;
4857;SDS011;58975;51.978;8.472;2023-06-14T20:09:44;8.07;;;2.38;;
4857;SDS011;58975;51.978;8.472;2023-06-14T20:14:41;4.40;;;2.55;;
4857;SDS011;58975;51.978;8.472;2023-06-14T20:19:37;4.63;;;2.40;;
4857;SDS011;58975;51.978;8.472;2023-06-14T20:24:34;6.85;;;2.38;;
4857;SDS011;58975;51.978;8.472;2023-06-14T20:29:30;5.35;;;2.50;;
4857;SDS011;58975;51.978;8.472;2023-06-14T20:34:29;5.00;;;2.38;;
4857;SDS011;58975;51.978;8.472;2023-06-14T20:39:26;8.00;;;2.63;;
4857;SDS011;58975;51.978;8.472;2023-06-14T20:44:23;4.95;;;2.53;;
4857;SDS011;58975;51.978;8.472;2023-06-14T20:49:25;9.00;;;3.15;;
4857;SDS011;58975;51.978;8.472;2023-06-14T20:54:24;4.95;;;3.22;;
4857;SDS011;58975;51.978;8.472;2023-06-14T20:59:20;4.45;;;2.58;;
4857;SDS011;58975;51.978;8.472;2023-06-14T21:04:17;6.40;;;2.75;;
4857;SDS011;58975;51.978;8.472;2023-06-14T21:09:14;4.95;;;3.17;;
4857;SDS011;58975;51.978;8.472;2023-06-14T21:14:12;4.70;;;2.63;;
4857;SDS011;58975;51.978;8.472;2023-06-14T21:19:09;5.65;;;2.83;;
4857;SDS011;58975;51.978;8.472;2023-06-14T21:24:05;7.30;;;2.65;;
4857;SDS011;58975;51.978;8.472;2023-06-14T21:29:03;8.03;;;3.00;;
4857;SDS011;58975;51.978;8.472;2023-06-14T21:34:00;4.90;;;3.33;;
4857;SDS011;58975;51.978;8.472;2023-06-14T21:38:56;4.32;;;3.08;;
4857;SDS011;58975;51.978;8.472;2023-06-14T21:43:53;4.75;;;2.70;;
4857;SDS011;58975;51.978;8.472;2023-06-14T21:48:50;4.00;;;2.23;;
4857;SDS011;58975;51.978;8.472;2023-06-14T21:53:46;8.90;;;2.92;;
4857;SDS011;58975;51.978;8.472;2023-06-14T21:58:45;5.20;;;2.78;;
4857;SDS011;58975;51.978;8.472;2023-06-14T22:03:42;4.57;;;2.70;;
4857;SDS011;58975;51.978;8.472;2023-06-14T22:08:38;5.13;;;2.75;;
4857;SDS011;58975;51.978;8.472;2023-06-14T22:13:38;10.27;;;2.90;;
4857;SDS011;58975;51.978;8.472;2023-06-14T22:18:34;6.43;;;3.13;;
4857;SDS011;58975;51.978;8.472;2023-06-14T22:23:32;3.73;;;2.90;;
4857;SDS011;58975;51.978;8.472;2023-06-14T22:28:34;7.45;;;2.65;;
4857;SDS011;58975;51.978;8.472;2023-06-14T22:33:37;5.15;;;3.25;;
4857;SDS011;58975;51.978;8.472;2023-06-14T22:38:38;5.85;;;2.95;;
4857;SDS011;58975;51.978;8.472;2023-06-14T22:43:41;5.50;;;3.33;;
4857;SDS011;58975;51.978;8.472;2023-06-14T22:48:39;3.42;;;2.90;;
4857;SDS011;58975;51.978;8.472;2023-06-14T22:53:42;4.50;;;2.80;;
4857;SDS011;58975;51.978;8.472;2023-06-14T22:58:39;5.93;;;3.00;;
4857;SDS011;58975;51.978;8.472;2023-06-14T23:03:37;3.63;;;2.97;;
4857;SDS011;58975;51.978;8.472;2023-06-14T23:08:34;7.80;;;3.70;;
4857;SDS011;58975;51.978;8.472;2023-06-14T23:13:31;3.50;;;2.90;;
4857;SDS011;58975;51.978;8.472;2023-06-14T23:18:27;6.07;;;2.72;;
4857;SDS011;58975;51.978;8.472;2023-06-14T23:23:25;6.50;;;2.42;;
4857;SDS011;58975;51.978;8.472;2023-06-14T23:28:23;4.20;;;2.30;;
4857;SDS011;58975;51.978;8.472;2023-06-14T23:33:19;5.45;;;2.22;;
4857;SDS011;58975;51.978;8.472;2023-06-14T23:38:16;6.68;;;2.47;;
4857;SDS011;58975;51.978;8.472;2023-06-14T23:43:13;10.65;;;2.45;;
4857;SDS011;58975;51.978;8.472;2023-06-14T23:48:10;6.25;;;2.65;;
4857;SDS011;58975;51.978;8.472;2023-06-14T23:53:07;4.78;;;2.70;;
4857;SDS011;58975;51.978;8.472;2023-06-14T23:58:04;4.82;;;2.67;;
